createdAt,value
2024-01-03T00:00:36.204Z,16.02
2024-01-03T00:03:06.173Z,16.04
2024-01-03T00:05:41.485Z,16.07
2024-01-03T00:08:28.847Z,16.08
2024-01-03T00:10:57.598Z,16.04
2024-01-03T00:13:31.140Z,16.04
2024-01-03T00:16:01.451Z,16.05
2024-01-03T00:18:39.246Z,16.03
2024-01-03T00:21:08.655Z,16.05
2024-01-03T00:23:45.307Z,16.02
2024-01-03T00:26:14.329Z,16.06
2024-01-03T00:28:43.109Z,16.08
2024-01-03T00:32:02.424Z,16.08
2024-01-03T00:34:45.095Z,16.03
2024-01-03T00:37:23.363Z,16.02
2024-01-03T00:39:50.721Z,16.04
2024-01-03T00:42:18.334Z,16.04
2024-01-03T00:44:45.600Z,16.02
2024-01-03T00:47:13.587Z,16.01
2024-01-03T00:49:42.160Z,16.02
2024-01-03T00:52:10.028Z,16.04
2024-01-03T00:54:38.371Z,16.01
2024-01-03T00:57:05.906Z,16.02
2024-01-03T00:59:36.379Z,16.01
2024-01-03T01:02:04.783Z,16.04
2024-01-03T01:04:34.078Z,16.03
2024-01-03T01:07:01.493Z,16.06
2024-01-03T01:09:28.662Z,16.06
2024-01-03T01:11:55.776Z,16.05
2024-01-03T01:14:22.901Z,16.07
2024-01-03T01:16:49.969Z,16.08
2024-01-03T01:19:17.362Z,16.10
2024-01-03T01:21:44.561Z,16.07
2024-01-03T01:24:11.637Z,16.05
2024-01-03T01:26:39.229Z,16.07
2024-01-03T01:29:06.354Z,16.06
2024-01-03T01:31:33.531Z,16.08
2024-01-03T01:34:01.829Z,16.09
2024-01-03T01:36:28.893Z,16.06
2024-01-03T01:38:56.067Z,16.07
2024-01-03T01:43:49.841Z,16.09
2024-01-03T01:46:18.606Z,16.08
2024-01-03T01:48:48.185Z,16.07
2024-01-03T01:51:16.811Z,16.08
2024-01-03T01:53:44.229Z,16.07
2024-01-03T01:56:12.250Z,16.07
2024-01-03T01:58:42.447Z,16.06
2024-01-03T02:01:10.199Z,16.07
2024-01-03T02:03:38.841Z,16.07
2024-01-03T02:06:09.576Z,16.06
2024-01-03T02:08:37.230Z,16.01
2024-01-03T02:11:05.652Z,16.04
2024-01-03T02:13:33.070Z,16.03
2024-01-03T02:16:00.302Z,16.02
2024-01-03T02:18:28.967Z,16.04
2024-01-03T02:20:57.969Z,16.00
2024-01-03T02:23:25.365Z,16.02
2024-01-03T02:25:53.675Z,15.99
2024-01-03T02:28:20.830Z,15.97
2024-01-03T02:30:49.845Z,15.96
2024-01-03T02:33:17.504Z,15.95
2024-01-03T02:35:44.741Z,15.94
2024-01-03T02:38:12.053Z,15.92
2024-01-03T02:40:39.327Z,15.90
2024-01-03T02:43:09.034Z,15.92
2024-01-03T02:45:36.233Z,15.91
2024-01-03T02:48:03.914Z,15.92
2024-01-03T02:50:31.108Z,15.91
2024-01-03T02:52:58.164Z,15.92
2024-01-03T02:55:25.231Z,15.91
2024-01-03T02:57:52.519Z,15.91
2024-01-03T03:00:19.814Z,15.91
2024-01-03T03:02:47.099Z,15.92
2024-01-03T03:05:14.233Z,15.93
2024-01-03T03:07:41.394Z,15.91
2024-01-03T03:10:11.830Z,15.95
2024-01-03T03:12:39.361Z,15.96
2024-01-03T03:15:07.220Z,15.98
2024-01-03T03:17:34.736Z,16.00
2024-01-03T03:20:01.891Z,16.04
2024-01-03T03:22:29.008Z,16.06
2024-01-03T03:24:56.200Z,16.06
2024-01-03T03:27:23.178Z,16.12
2024-01-03T03:29:51.461Z,16.12
2024-01-03T03:32:18.751Z,16.14
2024-01-03T03:34:45.754Z,16.17
2024-01-03T03:37:13.092Z,16.17
2024-01-03T03:39:40.102Z,16.20
2024-01-03T03:42:07.391Z,16.24
2024-01-03T03:44:34.534Z,16.26
2024-01-03T03:47:01.594Z,16.28
2024-01-03T03:49:28.854Z,16.29
2024-01-03T03:51:55.947Z,16.29
2024-01-03T03:54:23.132Z,16.29
2024-01-03T03:56:50.335Z,16.28
2024-01-03T03:59:17.605Z,16.24
2024-01-03T04:01:51.553Z,16.23
2024-01-03T04:04:19.177Z,16.17
2024-01-03T04:06:46.336Z,16.14
2024-01-03T04:09:13.669Z,16.11
2024-01-03T04:11:45.104Z,16.10
2024-01-03T04:14:12.417Z,16.07
2024-01-03T04:16:40.348Z,16.04
2024-01-03T04:19:07.666Z,16.02
2024-01-03T04:21:34.924Z,15.95
2024-01-03T04:24:02.019Z,15.94
2024-01-03T04:26:30.103Z,15.94
2024-01-03T04:28:57.240Z,15.94
2024-01-03T04:31:24.411Z,15.94
2024-01-03T04:33:51.520Z,15.93
2024-01-03T04:36:18.755Z,15.93
2024-01-03T04:38:46.140Z,15.93
2024-01-03T04:41:16.554Z,15.92
2024-01-03T04:43:43.628Z,15.92
2024-01-03T04:46:10.692Z,15.93
2024-01-03T04:48:37.940Z,15.94
2024-01-03T04:51:05.166Z,15.95
2024-01-03T04:53:32.931Z,15.98
2024-01-03T04:55:59.968Z,16.00
2024-01-03T04:58:27.163Z,16.01
2024-01-03T05:00:54.298Z,16.03
2024-01-03T05:03:22.240Z,16.04
2024-01-03T05:05:49.701Z,16.05
2024-01-03T05:08:16.926Z,16.07
2024-01-03T05:10:43.951Z,16.09
2024-01-03T05:13:11.110Z,16.10
2024-01-03T05:15:38.222Z,16.12
2024-01-03T05:18:05.782Z,16.12
2024-01-03T05:20:32.987Z,16.14
2024-01-03T05:23:00.029Z,16.17
2024-01-03T05:25:27.042Z,16.17
2024-01-03T05:27:54.107Z,16.19
2024-01-03T05:30:21.284Z,16.20
2024-01-03T05:32:48.466Z,16.23
2024-01-03T05:35:15.606Z,16.23
2024-01-03T05:37:42.610Z,16.22
2024-01-03T05:40:10.548Z,16.28
2024-01-03T05:42:37.872Z,16.31
2024-01-03T05:45:05.179Z,16.34
2024-01-03T05:47:32.507Z,16.36
2024-01-03T05:49:59.796Z,16.37
2024-01-03T05:52:26.951Z,16.40
2024-01-03T05:54:56.275Z,16.40
2024-01-03T05:57:23.459Z,16.42
2024-01-03T05:59:50.452Z,16.43
2024-01-03T06:02:17.575Z,16.44
2024-01-03T06:04:45.894Z,16.45
2024-01-03T06:07:13.274Z,16.47
2024-01-03T06:09:40.322Z,16.48
2024-01-03T06:12:07.703Z,16.49
2024-01-03T06:14:34.681Z,16.50
2024-01-03T06:17:01.716Z,16.51
2024-01-03T06:19:29.004Z,16.49
2024-01-03T06:21:56.048Z,16.50
2024-01-03T06:24:23.137Z,16.49
2024-01-03T06:26:50.239Z,16.51
2024-01-03T06:29:17.293Z,16.49
2024-01-03T06:31:44.381Z,16.50
2024-01-03T06:34:11.491Z,16.48
2024-01-03T06:36:38.611Z,16.43
2024-01-03T06:39:05.738Z,16.43
2024-01-03T06:41:32.853Z,16.39
2024-01-03T06:43:59.908Z,16.33
2024-01-03T06:46:28.682Z,16.28
2024-01-03T06:48:58.876Z,16.28
2024-01-03T06:51:26.289Z,16.20
2024-01-03T06:53:53.461Z,16.20
2024-01-03T06:56:22.188Z,16.21
2024-01-03T06:58:50.926Z,16.15
2024-01-03T07:01:18.158Z,16.17
2024-01-03T07:03:45.882Z,16.17
2024-01-03T07:06:13.117Z,16.17
2024-01-03T07:08:40.204Z,16.17
2024-01-03T07:11:07.353Z,16.18
2024-01-03T07:13:34.331Z,16.19
2024-01-03T07:16:01.460Z,16.20
2024-01-03T07:18:29.021Z,16.19
2024-01-03T07:20:56.174Z,16.21
2024-01-03T07:23:23.698Z,16.21
2024-01-03T07:25:50.746Z,16.20
2024-01-03T07:28:18.136Z,16.19
2024-01-03T07:30:45.514Z,16.21
2024-01-03T07:33:16.049Z,16.22
2024-01-03T07:35:43.708Z,16.25
2024-01-03T07:38:11.467Z,16.28
2024-01-03T07:40:38.788Z,16.31
2024-01-03T07:43:05.817Z,16.31
2024-01-03T07:45:32.995Z,16.36
2024-01-03T07:48:00.121Z,16.39
2024-01-03T07:50:27.256Z,16.49
2024-01-03T07:52:54.289Z,16.54
2024-01-03T07:55:21.304Z,16.60
2024-01-03T07:57:48.323Z,16.64
2024-01-03T08:00:15.819Z,16.71
2024-01-03T08:02:42.972Z,16.73
2024-01-03T08:05:11.146Z,16.74
2024-01-03T08:07:38.357Z,16.79
2024-01-03T08:10:06.069Z,16.82
2024-01-03T08:12:33.114Z,16.87
2024-01-03T08:15:00.619Z,16.89
2024-01-03T08:17:28.013Z,17.07
2024-01-03T08:19:55.337Z,17.06
2024-01-03T08:22:22.408Z,17.05
2024-01-03T08:24:49.493Z,17.12
2024-01-03T08:27:18.743Z,17.21
2024-01-03T08:29:48.793Z,17.30
2024-01-03T08:32:16.742Z,17.38
2024-01-03T08:34:47.454Z,17.43
2024-01-03T08:37:14.679Z,17.51
2024-01-03T08:39:41.886Z,17.65
2024-01-03T08:42:09.081Z,17.95
2024-01-03T08:44:36.231Z,18.24
2024-01-03T08:47:03.397Z,18.42
2024-01-03T08:49:30.919Z,18.57
2024-01-03T08:51:59.241Z,18.70
2024-01-03T08:54:27.239Z,18.98
2024-01-03T08:56:54.822Z,19.14
2024-01-03T08:59:22.176Z,19.51
2024-01-03T09:01:58.391Z,19.80
2024-01-03T09:04:25.442Z,19.89
2024-01-03T09:06:53.857Z,19.98
2024-01-03T09:09:21.016Z,19.98
2024-01-03T09:11:48.032Z,19.90
2024-01-03T09:14:15.101Z,19.68
2024-01-03T09:16:42.166Z,19.49
2024-01-03T09:19:10.670Z,19.41
2024-01-03T09:21:44.788Z,19.41
2024-01-03T09:24:12.408Z,19.50
2024-01-03T09:26:39.479Z,19.34
2024-01-03T09:29:07.099Z,19.26
2024-01-03T09:31:34.839Z,19.18
2024-01-03T09:34:01.952Z,19.06
2024-01-03T09:36:29.212Z,18.98
2024-01-03T09:38:56.692Z,19.01
2024-01-03T09:41:24.620Z,18.92
2024-01-03T09:43:57.040Z,19.02
2024-01-03T09:46:24.777Z,18.98
2024-01-03T09:48:52.132Z,19.16
2024-01-03T09:51:21.019Z,19.36
2024-01-03T09:53:52.690Z,19.45
2024-01-03T09:56:19.954Z,19.50
2024-01-03T09:58:50.709Z,19.49
2024-01-03T10:01:18.398Z,19.52
2024-01-03T10:03:45.967Z,19.48
2024-01-03T10:06:19.575Z,19.47
2024-01-03T10:09:02.354Z,19.40
2024-01-03T10:11:30.640Z,19.35
2024-01-03T10:14:14.227Z,19.35
2024-01-03T10:16:41.388Z,19.29
2024-01-03T10:19:20.232Z,19.27
2024-01-03T10:21:51.357Z,19.24
2024-01-03T10:24:20.338Z,19.17
2024-01-03T10:26:47.658Z,19.15
2024-01-03T10:29:17.046Z,19.13
2024-01-03T10:31:45.225Z,19.04
2024-01-03T10:34:18.669Z,18.94
2024-01-03T10:36:51.041Z,18.81
2024-01-03T10:39:20.624Z,18.73
2024-01-03T10:41:49.713Z,18.71
2024-01-03T10:44:21.276Z,18.64
2024-01-03T10:46:50.404Z,18.58
2024-01-03T10:49:18.688Z,18.57
2024-01-03T10:51:50.379Z,18.59
2024-01-03T10:54:20.950Z,18.55
2024-01-03T10:56:54.179Z,18.57
2024-01-03T10:59:31.936Z,18.64
2024-01-03T11:02:33.008Z,18.67
2024-01-03T11:05:31.865Z,18.68
2024-01-03T11:08:06.368Z,18.75
2024-01-03T11:10:53.347Z,18.81
2024-01-03T11:13:28.081Z,18.82
2024-01-03T11:15:54.949Z,18.81
2024-01-03T11:18:44.291Z,18.62
2024-01-03T11:21:28.251Z,18.65
2024-01-03T11:23:55.678Z,18.64
2024-01-03T11:26:54.539Z,18.72
2024-01-03T11:29:38.451Z,18.70
2024-01-03T11:32:07.220Z,18.64
2024-01-03T11:34:42.249Z,18.61
2024-01-03T11:37:18.360Z,18.66
2024-01-03T11:39:53.658Z,18.68
2024-01-03T11:42:34.675Z,18.65
2024-01-03T11:45:08.705Z,18.73
2024-01-03T11:47:44.310Z,18.74
2024-01-03T11:50:14.136Z,18.73
2024-01-03T11:52:47.432Z,18.80
2024-01-03T11:55:17.775Z,18.80
2024-01-03T11:57:46.875Z,18.75
2024-01-03T12:00:14.608Z,18.76
2024-01-03T12:02:55.247Z,18.80
2024-01-03T12:05:24.596Z,18.81
2024-01-03T12:07:53.757Z,18.84
2024-01-03T12:10:22.543Z,18.88
2024-01-03T12:12:52.715Z,18.91
2024-01-03T12:18:07.976Z,19.02
2024-01-03T12:20:35.574Z,19.01
2024-01-03T12:23:17.009Z,19.03
2024-01-03T12:25:45.047Z,19.08
2024-01-03T12:28:19.117Z,19.11
2024-01-03T12:30:46.345Z,19.14
2024-01-03T12:33:17.384Z,19.20
2024-01-03T12:35:50.068Z,19.21
2024-01-03T12:38:17.539Z,19.24
2024-01-03T12:40:47.172Z,19.32
2024-01-03T12:43:16.354Z,19.41
2024-01-03T12:45:45.536Z,19.43
2024-01-03T12:48:13.561Z,19.53
2024-01-03T12:50:43.632Z,19.51
2024-01-03T12:53:11.001Z,19.60
2024-01-03T12:55:41.039Z,19.66
2024-01-03T12:58:08.235Z,19.65
2024-01-03T13:00:35.324Z,19.57
2024-01-03T13:03:03.004Z,19.62
2024-01-03T13:05:30.237Z,19.59
2024-01-03T13:07:57.367Z,19.62
2024-01-03T13:10:24.812Z,19.66
2024-01-03T13:12:52.036Z,19.69
2024-01-03T13:15:22.897Z,19.69
2024-01-03T13:17:50.203Z,19.72
2024-01-03T13:20:20.750Z,19.68
2024-01-03T13:22:51.041Z,19.65
2024-01-03T13:25:18.272Z,19.62
2024-01-03T13:27:47.130Z,19.58
2024-01-03T13:30:15.465Z,19.53
2024-01-03T13:32:44.113Z,19.56
2024-01-03T13:35:11.893Z,19.56
2024-01-03T13:37:38.988Z,19.55
2024-01-03T13:40:07.757Z,19.56
2024-01-03T13:42:35.149Z,19.54
2024-01-03T13:45:02.419Z,19.49
2024-01-03T13:47:29.763Z,19.50
2024-01-03T13:49:57.160Z,19.50
2024-01-03T13:52:24.571Z,19.48
2024-01-03T13:54:51.693Z,19.41
2024-01-03T13:57:19.467Z,19.40
2024-01-03T13:59:46.630Z,19.39
2024-01-03T14:02:15.855Z,19.38
2024-01-03T14:04:47.830Z,19.33
2024-01-03T14:07:15.438Z,19.30
2024-01-03T14:09:42.556Z,19.30
2024-01-03T14:12:09.790Z,19.27
2024-01-03T14:14:37.770Z,19.24
2024-01-03T14:17:05.932Z,19.18
2024-01-03T14:19:33.180Z,19.08
2024-01-03T14:22:02.157Z,19.08
2024-01-03T14:24:37.962Z,19.08
2024-01-03T14:27:05.154Z,19.03
2024-01-03T14:29:32.715Z,19.04
2024-01-03T14:31:59.988Z,19.03
2024-01-03T14:34:27.053Z,19.00
2024-01-03T14:37:07.659Z,19.00
2024-01-03T14:39:36.369Z,18.97
2024-01-03T14:42:04.511Z,18.98
2024-01-03T14:44:33.235Z,18.93
2024-01-03T14:47:03.207Z,18.94
2024-01-03T14:49:31.148Z,18.95
2024-01-03T14:51:58.507Z,18.90
2024-01-03T14:54:25.529Z,18.91
2024-01-03T14:56:54.326Z,18.92
2024-01-03T14:59:24.141Z,18.88
2024-01-03T15:01:51.927Z,18.88
2024-01-03T15:04:24.606Z,18.87
2024-01-03T15:06:59.543Z,18.82
2024-01-03T15:09:31.333Z,18.82
2024-01-03T15:12:02.391Z,18.82
2024-01-03T15:14:29.842Z,18.79
2024-01-03T15:16:57.095Z,18.77
2024-01-03T15:19:24.355Z,18.80
2024-01-03T15:22:06.120Z,18.76
2024-01-03T15:24:37.110Z,18.76
2024-01-03T15:27:04.649Z,18.75
2024-01-03T15:29:32.959Z,18.71
2024-01-03T15:32:00.237Z,18.72
2024-01-03T15:34:28.330Z,18.72
2024-01-03T15:36:56.054Z,18.73
2024-01-03T15:39:26.535Z,18.70
2024-01-03T15:41:54.896Z,18.73
2024-01-03T15:44:22.010Z,18.73
2024-01-03T15:46:49.421Z,18.75
2024-01-03T15:49:16.748Z,18.71
2024-01-03T15:52:00.735Z,18.73
2024-01-03T15:54:40.839Z,18.73
2024-01-03T15:57:12.699Z,18.72
2024-01-03T15:59:40.374Z,18.71
2024-01-03T16:02:07.787Z,18.71
2024-01-03T16:04:35.053Z,18.70
2024-01-03T16:07:03.203Z,18.71
2024-01-03T16:09:30.646Z,18.69
2024-01-03T16:11:57.970Z,18.69
2024-01-03T16:14:25.152Z,18.68
2024-01-03T16:16:52.414Z,18.68
2024-01-03T16:19:20.103Z,18.67
2024-01-03T16:21:49.913Z,18.68
2024-01-03T16:24:20.687Z,18.68
2024-01-03T16:26:49.753Z,18.68
2024-01-03T16:29:17.085Z,18.69
2024-01-03T16:31:57.343Z,18.72
2024-01-03T16:34:27.831Z,18.70
2024-01-03T16:37:00.966Z,18.70
2024-01-03T16:39:28.248Z,18.70
2024-01-03T16:41:59.186Z,18.71
2024-01-03T16:44:26.667Z,18.72
2024-01-03T16:46:54.579Z,18.72
2024-01-03T16:49:22.784Z,18.72
2024-01-03T16:51:50.924Z,18.73
2024-01-03T16:54:18.017Z,18.70
2024-01-03T16:56:47.519Z,18.70
2024-01-03T16:59:15.897Z,18.68
2024-01-03T17:01:45.119Z,18.67
2024-01-03T17:04:16.817Z,18.68
2024-01-03T17:06:46.866Z,18.66
2024-01-03T17:09:18.609Z,18.67
2024-01-03T17:11:47.938Z,18.63
2024-01-03T17:14:16.906Z,18.65
2024-01-03T17:16:45.133Z,18.65
2024-01-03T17:19:12.525Z,18.66
2024-01-03T17:21:39.846Z,18.61
2024-01-03T17:24:07.366Z,18.62
2024-01-03T17:26:37.273Z,18.60
2024-01-03T17:29:05.703Z,18.61
2024-01-03T17:31:36.562Z,18.63
2024-01-03T17:34:05.429Z,18.60
2024-01-03T17:36:33.048Z,18.61
2024-01-03T17:39:00.489Z,18.60
2024-01-03T17:41:28.462Z,18.59
2024-01-03T17:43:56.678Z,18.57
2024-01-03T17:46:24.541Z,18.56
2024-01-03T17:48:53.086Z,18.55
2024-01-03T17:51:22.267Z,18.54
2024-01-03T17:53:57.081Z,18.52
2024-01-03T17:56:27.644Z,18.50
2024-01-03T17:58:56.295Z,18.50
2024-01-03T18:01:24.205Z,18.47
2024-01-03T18:03:52.416Z,18.38
2024-01-03T18:06:19.779Z,18.32
2024-01-03T18:08:47.203Z,18.17
2024-01-03T18:11:14.439Z,18.07
2024-01-03T18:13:41.737Z,17.87
2024-01-03T18:16:10.272Z,17.79
2024-01-03T18:18:38.229Z,17.61
2024-01-03T18:21:07.314Z,17.50
2024-01-03T18:23:38.329Z,17.46
2024-01-03T18:26:06.507Z,17.34
2024-01-03T18:28:33.725Z,17.25
2024-01-03T18:31:06.193Z,17.18
2024-01-03T18:33:33.797Z,17.06
2024-01-03T18:36:01.787Z,17.00
2024-01-03T18:38:33.715Z,16.91
2024-01-03T18:41:01.368Z,16.85
2024-01-03T18:43:29.131Z,16.85
2024-01-03T18:46:00.457Z,16.78
2024-01-03T18:48:28.661Z,16.79
2024-01-03T18:50:56.461Z,16.74
2024-01-03T18:53:30.027Z,16.75
2024-01-03T18:55:58.700Z,16.68
2024-01-03T18:58:26.409Z,16.67
2024-01-03T19:00:57.323Z,16.62
2024-01-03T19:03:40.180Z,16.63
2024-01-03T19:06:12.373Z,16.59
2024-01-03T19:08:40.201Z,16.62
2024-01-03T19:11:07.759Z,16.62
2024-01-03T19:13:35.420Z,16.61
2024-01-03T19:16:03.599Z,16.63
2024-01-03T19:18:30.994Z,16.61
2024-01-03T19:20:59.313Z,16.56
2024-01-03T19:23:27.044Z,16.51
2024-01-03T19:25:54.964Z,16.47
2024-01-03T19:28:22.892Z,16.48
2024-01-03T19:30:51.086Z,16.37
2024-01-03T19:33:18.981Z,16.38
2024-01-03T19:35:46.955Z,16.38
2024-01-03T19:38:17.491Z,16.35
2024-01-03T19:40:45.194Z,16.30
2024-01-03T19:43:13.092Z,16.29
2024-01-03T19:45:40.813Z,16.26
2024-01-03T19:48:09.836Z,16.27
2024-01-03T19:50:39.751Z,16.30
2024-01-03T19:53:08.111Z,16.30
2024-01-03T19:55:36.363Z,16.32
2024-01-03T19:58:04.232Z,16.34
2024-01-03T20:00:31.547Z,16.39
2024-01-03T20:02:59.214Z,16.40
2024-01-03T20:05:27.090Z,16.40
2024-01-03T20:07:54.818Z,16.41
2024-01-03T20:10:23.026Z,16.40
2024-01-03T20:12:50.814Z,16.39
2024-01-03T20:15:18.506Z,16.43
2024-01-03T20:17:46.150Z,16.42
2024-01-03T20:20:16.481Z,16.42
2024-01-03T20:22:44.811Z,16.40
2024-01-03T20:25:13.241Z,16.44
2024-01-03T20:27:47.002Z,16.46
2024-01-03T20:30:17.797Z,16.47
2024-01-03T20:32:45.960Z,16.48
2024-01-03T20:35:14.545Z,16.52
2024-01-03T20:37:43.571Z,16.51
2024-01-03T20:40:12.122Z,16.52
2024-01-03T20:42:41.558Z,16.52
2024-01-03T20:45:09.775Z,16.53
2024-01-03T20:47:37.889Z,16.54
2024-01-03T20:50:08.914Z,16.59
2024-01-03T20:52:37.453Z,16.60
2024-01-03T20:55:05.575Z,16.64
2024-01-03T20:57:33.515Z,16.65
2024-01-03T21:00:01.405Z,16.63
2024-01-03T21:02:31.901Z,16.65
2024-01-03T21:05:00.723Z,16.64
2024-01-03T21:07:28.584Z,16.66
2024-01-03T21:09:56.400Z,16.68
2024-01-03T21:12:24.018Z,16.70
2024-01-03T21:14:51.810Z,16.69
2024-01-03T21:17:19.483Z,16.67
2024-01-03T21:19:47.471Z,16.65
2024-01-03T21:22:15.448Z,16.68
2024-01-03T21:24:45.931Z,16.68
2024-01-03T21:27:44.643Z,16.70
2024-01-03T21:30:04.359Z,16.70
2024-01-03T21:32:32.433Z,16.73
2024-01-03T21:35:00.265Z,16.72
2024-01-03T21:37:28.212Z,16.74
2024-01-03T21:39:55.943Z,16.74
2024-01-03T21:42:23.966Z,16.72
2024-01-03T21:44:52.505Z,16.69
2024-01-03T21:47:20.328Z,16.69
2024-01-03T21:49:47.985Z,16.65
2024-01-03T21:52:15.695Z,16.65
2024-01-03T21:54:43.312Z,16.66
2024-01-03T21:57:10.986Z,16.61
2024-01-03T21:59:38.783Z,16.61
2024-01-03T22:02:06.919Z,16.60
2024-01-03T22:04:37.647Z,16.59
2024-01-03T22:07:05.560Z,16.56
2024-01-03T22:09:36.335Z,16.54
2024-01-03T22:12:08.057Z,16.51
2024-01-03T22:14:47.703Z,16.48
2024-01-03T22:17:15.798Z,16.47
2024-01-03T22:19:47.445Z,16.43
2024-01-03T22:22:15.435Z,16.39
2024-01-03T22:24:43.131Z,16.36
2024-01-03T22:27:10.966Z,16.35
2024-01-03T22:29:38.773Z,16.31
2024-01-03T22:32:06.064Z,16.30
2024-01-03T22:34:33.181Z,16.28
2024-01-03T22:37:00.420Z,16.26
2024-01-03T22:39:27.451Z,16.23
2024-01-03T22:41:55.117Z,16.24
2024-01-03T22:44:22.497Z,16.22
2024-01-03T22:46:50.076Z,16.21
2024-01-03T22:49:20.411Z,16.17
2024-01-03T22:51:50.145Z,16.14
2024-01-03T22:54:18.564Z,16.12
2024-01-03T22:56:46.036Z,16.08
2024-01-03T22:59:13.456Z,16.06
2024-01-03T23:01:44.570Z,16.02
2024-01-03T23:04:12.465Z,15.98
2024-01-03T23:06:40.425Z,15.97
2024-01-03T23:09:07.859Z,15.95
2024-01-03T23:11:35.844Z,15.87
2024-01-03T23:14:03.087Z,15.84
2024-01-03T23:16:30.329Z,15.82
2024-01-03T23:18:58.198Z,15.81
2024-01-03T23:21:25.911Z,15.81
2024-01-03T23:23:53.639Z,15.80
2024-01-03T23:26:20.950Z,15.75
2024-01-03T23:28:48.562Z,15.75
2024-01-03T23:31:16.550Z,15.75
2024-01-03T23:33:44.568Z,15.70
2024-01-03T23:36:14.219Z,15.69
2024-01-03T23:38:42.007Z,15.69
2024-01-03T23:41:21.452Z,15.66
2024-01-03T23:43:48.617Z,15.64
2024-01-03T23:46:16.034Z,15.62
2024-01-03T23:48:43.749Z,15.57
2024-01-03T23:51:11.056Z,15.56
2024-01-03T23:53:38.273Z,15.57
2024-01-03T23:56:05.922Z,15.52
2024-01-03T23:58:33.054Z,15.48
